sensor_id;sensor_type;location;lat;lon;timestamp;pressure;altitude;pressure_sealevel;temperature;humidity
10462;BME280;5278;42.656;23.374;2023-12-28T00:01:08;95718.69;;;7.04;80.37
10462;BME280;5278;42.656;23.374;2023-12-28T00:03:36;95720.59;;;7.02;80.96
10462;BME280;5278;42.656;23.374;2023-12-28T00:06:03;95723.31;;;7.01;81.63
10462;BME280;5278;42.656;23.374;2023-12-28T00:08:30;95723.09;;;6.92;82.32
10462;BME280;5278;42.656;23.374;2023-12-28T00:10:59;95720.22;;;6.86;82.16
10462;BME280;5278;42.656;23.374;2023-12-28T00:13:26;95732.25;;;6.97;81.71
10462;BME280;5278;42.656;23.374;2023-12-28T00:15:53;95731.94;;;6.90;80.71
10462;BME280;5278;42.656;23.374;2023-12-28T00:18:21;95737.66;;;6.93;79.83
10462;BME280;5278;42.656;23.374;2023-12-28T00:20:49;95737.22;;;6.88;77.54
10462;BME280;5278;42.656;23.374;2023-12-28T00:23:16;95735.13;;;6.82;77.27
10462;BME280;5278;42.656;23.374;2023-12-28T00:25:43;95742.56;;;6.76;78.06
10462;BME280;5278;42.656;23.374;2023-12-28T00:28:10;95741.75;;;6.64;78.85
10462;BME280;5278;42.656;23.374;2023-12-28T00:30:37;95702.16;;;6.43;78.91
10462;BME280;5278;42.656;23.374;2023-12-28T00:33:04;95749.78;;;6.50;78.96
10462;BME280;5278;42.656;23.374;2023-12-28T00:35:32;95750.53;;;6.41;79.31
10462;BME280;5278;42.656;23.374;2023-12-28T00:37:59;95744.91;;;6.36;79.30
10462;BME280;5278;42.656;23.374;2023-12-28T00:40:26;95747.97;;;6.30;79.67
10462;BME280;5278;42.656;23.374;2023-12-28T00:42:53;95741.88;;;6.31;79.79
10462;BME280;5278;42.656;23.374;2023-12-28T00:45:20;95738.56;;;6.29;79.90
10462;BME280;5278;42.656;23.374;2023-12-28T00:47:47;95740.75;;;6.13;80.45
10462;BME280;5278;42.656;23.374;2023-12-28T00:50:14;95755.13;;;6.15;80.75
10462;BME280;5278;42.656;23.374;2023-12-28T00:52:43;95757.97;;;6.12;81.94
10462;BME280;5278;42.656;23.374;2023-12-28T00:55:10;95764.63;;;6.15;82.57
10462;BME280;5278;42.656;23.374;2023-12-28T00:57:37;95754.69;;;6.10;82.39
10462;BME280;5278;42.656;23.374;2023-12-28T01:00:05;95759.94;;;6.09;83.29
10462;BME280;5278;42.656;23.374;2023-12-28T01:02:32;95758.41;;;5.61;82.66
10462;BME280;5278;42.656;23.374;2023-12-28T01:04:59;95773.44;;;6.01;83.14
10462;BME280;5278;42.656;23.374;2023-12-28T01:07:26;95764.63;;;6.03;82.88
10462;BME280;5278;42.656;23.374;2023-12-28T01:09:54;95765.25;;;6.07;82.67
10462;BME280;5278;42.656;23.374;2023-12-28T01:12:23;95766.28;;;6.04;82.70
10462;BME280;5278;42.656;23.374;2023-12-28T01:14:50;95761.38;;;6.13;82.52
10462;BME280;5278;42.656;23.374;2023-12-28T01:17:17;95763.00;;;6.14;82.44
10462;BME280;5278;42.656;23.374;2023-12-28T01:19:45;95764.63;;;6.15;82.37
10462;BME280;5278;42.656;23.374;2023-12-28T01:22:12;95757.72;;;6.15;82.37
10462;BME280;5278;42.656;23.374;2023-12-28T01:24:38;95760.31;;;6.15;82.11
10462;BME280;5278;42.656;23.374;2023-12-28T01:27:06;95759.13;;;6.08;81.88
10462;BME280;5278;42.656;23.374;2023-12-28T01:29:33;95768.16;;;6.14;81.81
10462;BME280;5278;42.656;23.374;2023-12-28T01:32:02;95759.59;;;6.13;81.43
10462;BME280;5278;42.656;23.374;2023-12-28T01:34:29;95661.53;;;5.48;81.24
10462;BME280;5278;42.656;23.374;2023-12-28T01:36:57;95759.72;;;6.12;81.06
10462;BME280;5278;42.656;23.374;2023-12-28T01:39:24;95757.63;;;6.17;81.36
10462;BME280;5278;42.656;23.374;2023-12-28T01:41:51;95749.72;;;6.18;80.60
10462;BME280;5278;42.656;23.374;2023-12-28T01:44:19;95749.38;;;6.23;80.25
10462;BME280;5278;42.656;23.374;2023-12-28T01:46:48;95754.88;;;6.18;79.97
10462;BME280;5278;42.656;23.374;2023-12-28T01:49:17;95748.44;;;6.24;79.22
10462;BME280;5278;42.656;23.374;2023-12-28T01:51:44;95773.75;;;6.30;78.59
10462;BME280;5278;42.656;23.374;2023-12-28T01:54:12;95751.00;;;6.35;77.76
10462;BME280;5278;42.656;23.374;2023-12-28T01:56:39;95748.56;;;6.22;77.84
10462;BME280;5278;42.656;23.374;2023-12-28T01:59:07;95749.88;;;6.17;77.79
10462;BME280;5278;42.656;23.374;2023-12-28T02:01:36;95741.41;;;6.15;77.60
10462;BME280;5278;42.656;23.374;2023-12-28T02:04:03;95739.66;;;6.15;77.15
10462;BME280;5278;42.656;23.374;2023-12-28T02:06:31;95742.97;;;6.17;77.41
10462;BME280;5278;42.656;23.374;2023-12-28T02:08:58;95740.50;;;6.16;77.67
10462;BME280;5278;42.656;23.374;2023-12-28T02:11:25;95754.31;;;6.15;78.02
10462;BME280;5278;42.656;23.374;2023-12-28T02:13:52;95745.75;;;6.14;78.33
10462;BME280;5278;42.656;23.374;2023-12-28T02:16:25;95739.09;;;6.12;78.34
10462;BME280;5278;42.656;23.374;2023-12-28T02:19:00;95740.97;;;6.10;78.39
10462;BME280;5278;42.656;23.374;2023-12-28T02:21:31;95740.38;;;6.06;78.70
10462;BME280;5278;42.656;23.374;2023-12-28T02:23:58;95665.75;;;5.38;78.46
10462;BME280;5278;42.656;23.374;2023-12-28T02:26:26;95742.84;;;6.08;78.67
10462;BME280;5278;42.656;23.374;2023-12-28T02:28:53;95739.91;;;6.12;78.41
10462;BME280;5278;42.656;23.374;2023-12-28T02:31:21;95715.63;;;6.03;78.41
10462;BME280;5278;42.656;23.374;2023-12-28T02:33:57;95742.72;;;6.09;78.35
10462;BME280;5278;42.656;23.374;2023-12-28T02:36:26;95742.13;;;6.17;78.20
10462;BME280;5278;42.656;23.374;2023-12-28T02:38:58;95752.44;;;6.17;78.09
10462;BME280;5278;42.656;23.374;2023-12-28T02:41:33;95745.91;;;6.13;78.06
10462;BME280;5278;42.656;23.374;2023-12-28T02:44:00;95738.16;;;6.01;78.27
10462;BME280;5278;42.656;23.374;2023-12-28T02:46:27;95736.63;;;5.99;78.53
10462;BME280;5278;42.656;23.374;2023-12-28T02:48:54;95736.75;;;5.86;79.48
10462;BME280;5278;42.656;23.374;2023-12-28T02:51:25;95722.44;;;5.71;79.60
10462;BME280;5278;42.656;23.374;2023-12-28T02:53:52;95746.16;;;5.87;79.38
10462;BME280;5278;42.656;23.374;2023-12-28T02:56:19;95741.00;;;5.87;79.80
10462;BME280;5278;42.656;23.374;2023-12-28T02:58:48;95738.13;;;5.79;80.61
10462;BME280;5278;42.656;23.374;2023-12-28T03:01:15;95732.97;;;5.79;81.36
10462;BME280;5278;42.656;23.374;2023-12-28T03:03:41;95730.75;;;5.75;81.53
10462;BME280;5278;42.656;23.374;2023-12-28T03:06:08;95734.88;;;5.77;81.94
10462;BME280;5278;42.656;23.374;2023-12-28T03:08:35;95726.19;;;5.78;82.20
10462;BME280;5278;42.656;23.374;2023-12-28T03:11:03;95727.13;;;5.77;82.62
10462;BME280;5278;42.656;23.374;2023-12-28T03:13:29;95730.06;;;5.73;82.93
10462;BME280;5278;42.656;23.374;2023-12-28T03:15:59;95713.88;;;5.71;83.12
10462;BME280;5278;42.656;23.374;2023-12-28T03:18:26;95710.94;;;5.64;83.40
10462;BME280;5278;42.656;23.374;2023-12-28T03:20:52;95715.28;;;5.63;83.80
10462;BME280;5278;42.656;23.374;2023-12-28T03:23:22;95723.50;;;5.57;83.84
10462;BME280;5278;42.656;23.374;2023-12-28T03:25:49;95722.69;;;5.57;84.80
10462;BME280;5278;42.656;23.374;2023-12-28T03:28:16;95713.31;;;5.56;84.91
10462;BME280;5278;42.656;23.374;2023-12-28T03:30:43;95707.56;;;5.52;85.04
10462;BME280;5278;42.656;23.374;2023-12-28T03:33:13;95718.94;;;5.61;84.98
10462;BME280;5278;42.656;23.374;2023-12-28T03:35:40;95721.25;;;5.53;85.13
10462;BME280;5278;42.656;23.374;2023-12-28T03:38:07;95730.53;;;5.55;85.14
10462;BME280;5278;42.656;23.374;2023-12-28T03:40:34;95746.81;;;5.56;85.30
10462;BME280;5278;42.656;23.374;2023-12-28T03:43:01;95739.75;;;5.58;85.28
10462;BME280;5278;42.656;23.374;2023-12-28T03:45:28;95717.03;;;5.41;85.07
10462;BME280;5278;42.656;23.374;2023-12-28T03:47:55;95749.50;;;5.54;84.69
10462;BME280;5278;42.656;23.374;2023-12-28T03:50:24;95749.72;;;5.51;84.44
10462;BME280;5278;42.656;23.374;2023-12-28T03:52:50;95732.03;;;5.36;84.48
10462;BME280;5278;42.656;23.374;2023-12-28T03:55:17;95710.56;;;5.24;84.24
10462;BME280;5278;42.656;23.374;2023-12-28T03:57:44;95758.63;;;5.47;84.39
10462;BME280;5278;42.656;23.374;2023-12-28T04:00:13;95745.94;;;5.33;84.47
10462;BME280;5278;42.656;23.374;2023-12-28T04:02:41;95757.81;;;5.47;84.56
10462;BME280;5278;42.656;23.374;2023-12-28T04:05:08;95713.72;;;5.16;84.39
10462;BME280;5278;42.656;23.374;2023-12-28T04:07:36;95771.28;;;5.50;84.47
10462;BME280;5278;42.656;23.374;2023-12-28T04:10:04;95755.22;;;5.47;84.24
10462;BME280;5278;42.656;23.374;2023-12-28T04:12:31;95756.06;;;5.47;84.22
10462;BME280;5278;42.656;23.374;2023-12-28T04:14:58;95760.38;;;5.47;84.28
10462;BME280;5278;42.656;23.374;2023-12-28T04:17:25;95763.06;;;5.45;84.51
10462;BME280;5278;42.656;23.374;2023-12-28T04:19:52;95758.97;;;5.43;84.90
10462;BME280;5278;42.656;23.374;2023-12-28T04:22:18;95756.16;;;5.46;85.10
10462;BME280;5278;42.656;23.374;2023-12-28T04:24:46;95760.50;;;5.45;85.10
10462;BME280;5278;42.656;23.374;2023-12-28T04:27:13;95757.81;;;5.47;85.38
10462;BME280;5278;42.656;23.374;2023-12-28T04:29:40;95755.78;;;5.39;85.17
10462;BME280;5278;42.656;23.374;2023-12-28T04:32:07;95743.97;;;5.37;85.69
10462;BME280;5278;42.656;23.374;2023-12-28T04:34:35;95757.09;;;5.45;85.16
10462;BME280;5278;42.656;23.374;2023-12-28T04:37:02;95764.13;;;5.43;84.72
10462;BME280;5278;42.656;23.374;2023-12-28T04:39:29;95756.41;;;5.43;84.22
10462;BME280;5278;42.656;23.374;2023-12-28T04:41:57;95761.56;;;5.43;84.18
10462;BME280;5278;42.656;23.374;2023-12-28T04:44:24;95753.47;;;5.36;84.49
10462;BME280;5278;42.656;23.374;2023-12-28T04:46:51;95752.19;;;5.42;84.17
10462;BME280;5278;42.656;23.374;2023-12-28T04:49:19;95755.69;;;5.41;84.35
10462;BME280;5278;42.656;23.374;2023-12-28T04:51:45;95753.47;;;5.47;83.82
10462;BME280;5278;42.656;23.374;2023-12-28T04:54:12;95755.00;;;5.50;83.74
10462;BME280;5278;42.656;23.374;2023-12-28T04:56:39;95740.81;;;5.44;83.43
10462;BME280;5278;42.656;23.374;2023-12-28T04:59:07;95747.25;;;5.39;84.02
10462;BME280;5278;42.656;23.374;2023-12-28T05:01:40;95751.56;;;5.38;83.71
10462;BME280;5278;42.656;23.374;2023-12-28T05:04:10;95746.75;;;5.34;84.00
10462;BME280;5278;42.656;23.374;2023-12-28T05:06:37;95754.97;;;5.39;83.77
10462;BME280;5278;42.656;23.374;2023-12-28T05:09:04;95753.56;;;5.35;83.77
10462;BME280;5278;42.656;23.374;2023-12-28T05:11:31;95755.44;;;5.33;83.96
10462;BME280;5278;42.656;23.374;2023-12-28T05:13:58;95760.00;;;5.29;84.03
10462;BME280;5278;42.656;23.374;2023-12-28T05:16:27;95763.38;;;5.30;84.50
10462;BME280;5278;42.656;23.374;2023-12-28T05:18:54;95742.31;;;5.25;84.60
10462;BME280;5278;42.656;23.374;2023-12-28T05:21:20;95755.44;;;5.22;84.40
10462;BME280;5278;42.656;23.374;2023-12-28T05:23:47;95748.59;;;5.09;84.89
10462;BME280;5278;42.656;23.374;2023-12-28T05:26:14;95763.34;;;5.18;84.71
10462;BME280;5278;42.656;23.374;2023-12-28T05:28:42;95776.81;;;5.11;84.98
10462;BME280;5278;42.656;23.374;2023-12-28T05:31:09;95746.22;;;4.95;85.36
10462;BME280;5278;42.656;23.374;2023-12-28T05:33:37;95763.00;;;5.12;85.32
10462;BME280;5278;42.656;23.374;2023-12-28T05:36:05;95759.84;;;5.19;85.25
10462;BME280;5278;42.656;23.374;2023-12-28T05:38:33;95770.84;;;5.10;85.46
10462;BME280;5278;42.656;23.374;2023-12-28T05:40:59;95778.09;;;5.05;84.54
10462;BME280;5278;42.656;23.374;2023-12-28T05:43:26;95809.66;;;4.96;84.21
10462;BME280;5278;42.656;23.374;2023-12-28T05:45:53;95778.03;;;4.94;84.88
10462;BME280;5278;42.656;23.374;2023-12-28T05:48:22;95770.69;;;5.01;84.52
10462;BME280;5278;42.656;23.374;2023-12-28T05:50:50;95765.09;;;5.07;83.73
10462;BME280;5278;42.656;23.374;2023-12-28T05:53:17;95775.41;;;5.07;83.64
10462;BME280;5278;42.656;23.374;2023-12-28T05:55:44;95772.53;;;4.99;84.01
10462;BME280;5278;42.656;23.374;2023-12-28T05:58:11;95782.03;;;4.98;83.71
10462;BME280;5278;42.656;23.374;2023-12-28T06:00:38;95785.31;;;5.00;84.23
10462;BME280;5278;42.656;23.374;2023-12-28T06:03:07;95782.97;;;4.97;84.33
10462;BME280;5278;42.656;23.374;2023-12-28T06:05:34;95768.50;;;4.84;84.79
10462;BME280;5278;42.656;23.374;2023-12-28T06:08:02;95775.53;;;4.82;85.63
10462;BME280;5278;42.656;23.374;2023-12-28T06:10:29;95781.72;;;4.79;85.63
10462;BME280;5278;42.656;23.374;2023-12-28T06:12:56;95785.88;;;4.69;86.18
10462;BME280;5278;42.656;23.374;2023-12-28T06:15:22;95788.19;;;4.85;86.55
10462;BME280;5278;42.656;23.374;2023-12-28T06:17:49;95778.84;;;5.30;85.72
10462;BME280;5278;42.656;23.374;2023-12-28T06:20:16;95786.00;;;6.17;82.03
10462;BME280;5278;42.656;23.374;2023-12-28T06:22:42;95779.06;;;7.03;77.93
10462;BME280;5278;42.656;23.374;2023-12-28T06:25:15;95774.56;;;7.88;74.39
10462;BME280;5278;42.656;23.374;2023-12-28T06:27:41;95776.88;;;8.61;70.07
10462;BME280;5278;42.656;23.374;2023-12-28T06:30:09;95773.22;;;9.12;67.44
10462;BME280;5278;42.656;23.374;2023-12-28T06:32:35;95766.13;;;9.89;63.82
10462;BME280;5278;42.656;23.374;2023-12-28T06:35:03;95773.91;;;10.81;59.74
10462;BME280;5278;42.656;23.374;2023-12-28T06:37:31;95773.59;;;11.55;56.37
10462;BME280;5278;42.656;23.374;2023-12-28T06:39:58;95761.50;;;12.31;52.85
10462;BME280;5278;42.656;23.374;2023-12-28T06:42:26;95764.16;;;13.06;49.98
10462;BME280;5278;42.656;23.374;2023-12-28T06:44:53;95766.94;;;13.85;47.07
10462;BME280;5278;42.656;23.374;2023-12-28T06:47:19;95764.16;;;14.58;44.69
10462;BME280;5278;42.656;23.374;2023-12-28T06:49:46;95765.09;;;15.41;42.38
10462;BME280;5278;42.656;23.374;2023-12-28T06:52:13;95768.41;;;15.96;40.43
10462;BME280;5278;42.656;23.374;2023-12-28T06:54:40;95765.75;;;16.62;38.30
10462;BME280;5278;42.656;23.374;2023-12-28T06:57:06;95763.31;;;16.97;37.21
10462;BME280;5278;42.656;23.374;2023-12-28T06:59:35;95757.44;;;16.95;36.55
10462;BME280;5278;42.656;23.374;2023-12-28T07:02:02;95754.63;;;17.39;35.57
10462;BME280;5278;42.656;23.374;2023-12-28T07:04:29;95763.72;;;17.57;35.35
10462;BME280;5278;42.656;23.374;2023-12-28T07:06:56;95756.34;;;17.95;34.68
10462;BME280;5278;42.656;23.374;2023-12-28T07:09:23;95760.00;;;18.29;33.93
10462;BME280;5278;42.656;23.374;2023-12-28T07:11:50;95709.78;;;18.24;33.77
10462;BME280;5278;42.656;23.374;2023-12-28T07:14:17;95759.94;;;18.50;33.87
10462;BME280;5278;42.656;23.374;2023-12-28T07:16:45;95758.81;;;18.31;34.37
10462;BME280;5278;42.656;23.374;2023-12-28T07:19:12;95763.63;;;18.21;34.71
10462;BME280;5278;42.656;23.374;2023-12-28T07:21:39;95764.56;;;18.14;35.03
10462;BME280;5278;42.656;23.374;2023-12-28T07:24:07;95755.50;;;18.16;35.11
10462;BME280;5278;42.656;23.374;2023-12-28T07:26:34;95756.84;;;18.05;35.28
10462;BME280;5278;42.656;23.374;2023-12-28T07:29:01;95754.72;;;18.22;35.13
10462;BME280;5278;42.656;23.374;2023-12-28T07:31:28;95756.06;;;18.12;35.12
10462;BME280;5278;42.656;23.374;2023-12-28T07:33:58;95763.09;;;18.04;35.23
10462;BME280;5278;42.656;23.374;2023-12-28T07:36:27;95748.88;;;17.92;35.72
10462;BME280;5278;42.656;23.374;2023-12-28T07:38:53;95686.03;;;17.76;35.42
10462;BME280;5278;42.656;23.374;2023-12-28T07:41:20;95755.97;;;18.26;35.44
10462;BME280;5278;42.656;23.374;2023-12-28T07:43:47;95762.75;;;18.14;35.50
10462;BME280;5278;42.656;23.374;2023-12-28T07:46:14;95767.75;;;18.37;35.41
10462;BME280;5278;42.656;23.374;2023-12-28T07:48:41;95761.91;;;18.41;35.43
10462;BME280;5278;42.656;23.374;2023-12-28T07:51:09;95763.69;;;18.62;34.75
10462;BME280;5278;42.656;23.374;2023-12-28T07:53:39;95766.75;;;18.72;34.90
10462;BME280;5278;42.656;23.374;2023-12-28T07:56:07;95765.66;;;19.01;34.47
10462;BME280;5278;42.656;23.374;2023-12-28T07:58:34;95761.28;;;19.48;33.78
10462;BME280;5278;42.656;23.374;2023-12-28T08:01:09;95766.19;;;19.70;33.31
10462;BME280;5278;42.656;23.374;2023-12-28T08:03:36;95765.81;;;19.87;32.86
10462;BME280;5278;42.656;23.374;2023-12-28T08:06:03;95762.91;;;20.21;32.17
10462;BME280;5278;42.656;23.374;2023-12-28T08:08:32;95757.63;;;20.34;32.18
10462;BME280;5278;42.656;23.374;2023-12-28T08:11:01;95761.03;;;20.54;31.66
10462;BME280;5278;42.656;23.374;2023-12-28T08:13:28;95748.94;;;20.85;31.29
10462;BME280;5278;42.656;23.374;2023-12-28T08:15:55;95756.34;;;21.14;30.66
10462;BME280;5278;42.656;23.374;2023-12-28T08:18:22;95747.97;;;21.55;30.05
10462;BME280;5278;42.656;23.374;2023-12-28T08:20:49;95755.78;;;21.68;29.71
10462;BME280;5278;42.656;23.374;2023-12-28T08:23:16;95745.03;;;21.63;29.62
10462;BME280;5278;42.656;23.374;2023-12-28T08:25:44;95748.09;;;21.67;29.84
10462;BME280;5278;42.656;23.374;2023-12-28T08:28:11;95743.25;;;21.82;29.63
10462;BME280;5278;42.656;23.374;2023-12-28T08:30:38;95733.94;;;22.04;29.61
10462;BME280;5278;42.656;23.374;2023-12-28T08:33:05;95741.69;;;22.24;29.52
10462;BME280;5278;42.656;23.374;2023-12-28T08:35:32;95743.25;;;22.31;28.96
10462;BME280;5278;42.656;23.374;2023-12-28T08:37:58;95742.22;;;22.32;29.53
10462;BME280;5278;42.656;23.374;2023-12-28T08:40:25;95743.78;;;22.40;29.33
10462;BME280;5278;42.656;23.374;2023-12-28T08:42:55;95744.50;;;22.47;29.33
10462;BME280;5278;42.656;23.374;2023-12-28T08:45:22;95733.91;;;22.65;29.13
10462;BME280;5278;42.656;23.374;2023-12-28T08:47:49;95729.09;;;22.81;28.41
10462;BME280;5278;42.656;23.374;2023-12-28T08:50:16;95724.34;;;23.01;28.48
10462;BME280;5278;42.656;23.374;2023-12-28T08:52:42;95693.53;;;23.00;28.32
10462;BME280;5278;42.656;23.374;2023-12-28T08:55:10;95706.81;;;22.82;28.59
10462;BME280;5278;42.656;23.374;2023-12-28T08:57:36;95710.66;;;23.15;28.44
10462;BME280;5278;42.656;23.374;2023-12-28T09:00:06;95711.88;;;23.31;28.57
10462;BME280;5278;42.656;23.374;2023-12-28T09:02:34;95708.53;;;23.36;27.98
10462;BME280;5278;42.656;23.374;2023-12-28T09:05:01;95710.72;;;23.39;28.50
10462;BME280;5278;42.656;23.374;2023-12-28T09:07:28;95697.56;;;23.97;27.41
10462;BME280;5278;42.656;23.374;2023-12-28T09:09:54;95696.50;;;24.44;26.95
10462;BME280;5278;42.656;23.374;2023-12-28T09:12:21;95665.88;;;24.42;26.66
10462;BME280;5278;42.656;23.374;2023-12-28T09:14:48;95676.50;;;24.94;26.22
10462;BME280;5278;42.656;23.374;2023-12-28T09:17:21;95693.16;;;25.17;26.09
10462;BME280;5278;42.656;23.374;2023-12-28T09:19:49;95676.38;;;25.45;25.79
10462;BME280;5278;42.656;23.374;2023-12-28T09:22:16;95676.56;;;25.55;25.55
10462;BME280;5278;42.656;23.374;2023-12-28T09:24:44;95680.47;;;26.03;25.05
10462;BME280;5278;42.656;23.374;2023-12-28T09:27:11;95677.06;;;26.07;24.90
10462;BME280;5278;42.656;23.374;2023-12-28T09:29:38;95675.94;;;26.20;24.91
10462;BME280;5278;42.656;23.374;2023-12-28T09:32:05;95661.25;;;26.01;24.98
10462;BME280;5278;42.656;23.374;2023-12-28T09:34:33;95664.63;;;26.13;24.99
10462;BME280;5278;42.656;23.374;2023-12-28T09:37:00;95598.84;;;25.97;24.65
10462;BME280;5278;42.656;23.374;2023-12-28T09:39:27;95658.63;;;26.39;24.65
10462;BME280;5278;42.656;23.374;2023-12-28T09:41:55;95649.78;;;26.82;24.13
10462;BME280;5278;42.656;23.374;2023-12-28T09:44:24;95641.91;;;26.71;24.07
10462;BME280;5278;42.656;23.374;2023-12-28T09:46:51;95646.59;;;26.85;28.93
10462;BME280;5278;42.656;23.374;2023-12-28T09:49:19;95593.00;;;27.46;28.53
10462;BME280;5278;42.656;23.374;2023-12-28T09:51:49;95629.84;;;28.12;24.99
10462;BME280;5278;42.656;23.374;2023-12-28T09:54:16;95628.50;;;28.15;25.66
10462;BME280;5278;42.656;23.374;2023-12-28T09:56:45;95620.38;;;28.47;24.72
10462;BME280;5278;42.656;23.374;2023-12-28T09:59:11;95620.25;;;28.79;24.46
10462;BME280;5278;42.656;23.374;2023-12-28T10:01:40;95611.94;;;28.85;24.05
10462;BME280;5278;42.656;23.374;2023-12-28T10:04:08;95610.66;;;28.98;24.46
10462;BME280;5278;42.656;23.374;2023-12-28T10:06:36;95613.63;;;29.17;23.53
10462;BME280;5278;42.656;23.374;2023-12-28T10:09:06;95597.53;;;29.12;24.67
10462;BME280;5278;42.656;23.374;2023-12-28T10:11:33;95600.22;;;29.17;24.54
10462;BME280;5278;42.656;23.374;2023-12-28T10:14:01;95594.84;;;29.06;23.95
10462;BME280;5278;42.656;23.374;2023-12-28T10:16:30;95589.25;;;29.03;23.29
10462;BME280;5278;42.656;23.374;2023-12-28T10:18:56;95597.28;;;29.13;23.48
10462;BME280;5278;42.656;23.374;2023-12-28T10:21:24;95587.38;;;29.08;23.12
10462;BME280;5278;42.656;23.374;2023-12-28T10:23:51;95575.84;;;29.03;23.49
10462;BME280;5278;42.656;23.374;2023-12-28T10:26:19;95569.16;;;29.05;23.04
10462;BME280;5278;42.656;23.374;2023-12-28T10:28:48;95570.75;;;29.06;22.82
10462;BME280;5278;42.656;23.374;2023-12-28T10:31:15;95562.16;;;28.84;23.24
10462;BME280;5278;42.656;23.374;2023-12-28T10:33:42;95558.72;;;28.89;22.71
10462;BME280;5278;42.656;23.374;2023-12-28T10:36:12;95557.63;;;28.90;22.81
10462;BME280;5278;42.656;23.374;2023-12-28T10:38:43;95544.50;;;28.73;23.38
10462;BME280;5278;42.656;23.374;2023-12-28T10:41:13;95541.44;;;27.82;23.85
10462;BME280;5278;42.656;23.374;2023-12-28T10:43:46;95532.44;;;27.98;23.45
10462;BME280;5278;42.656;23.374;2023-12-28T10:46:21;95523.53;;;27.82;23.91
10462;BME280;5278;42.656;23.374;2023-12-28T10:48:53;95525.88;;;27.69;24.57
10462;BME280;5278;42.656;23.374;2023-12-28T10:51:25;95508.53;;;27.76;23.94
10462;BME280;5278;42.656;23.374;2023-12-28T10:53:59;95507.81;;;27.96;24.18
10462;BME280;5278;42.656;23.374;2023-12-28T10:56:35;95503.56;;;28.00;24.14
10462;BME280;5278;42.656;23.374;2023-12-28T10:59:12;95500.28;;;27.83;24.49
10462;BME280;5278;42.656;23.374;2023-12-28T11:01:43;95495.50;;;27.90;24.02
10462;BME280;5278;42.656;23.374;2023-12-28T11:04:17;95495.69;;;27.31;23.76
10462;BME280;5278;42.656;23.374;2023-12-28T11:06:50;95508.00;;;26.69;24.48
10462;BME280;5278;42.656;23.374;2023-12-28T11:09:18;95499.72;;;25.18;26.23
10462;BME280;5278;42.656;23.374;2023-12-28T11:11:47;95497.53;;;25.32;26.42
10462;BME280;5278;42.656;23.374;2023-12-28T11:14:18;95490.28;;;25.27;26.41
10462;BME280;5278;42.656;23.374;2023-12-28T11:16:45;95495.53;;;25.22;26.39
10462;BME280;5278;42.656;23.374;2023-12-28T11:19:12;95482.88;;;24.96;26.94
10462;BME280;5278;42.656;23.374;2023-12-28T11:21:40;95483.06;;;24.89;27.11
10462;BME280;5278;42.656;23.374;2023-12-28T11:24:08;95471.59;;;24.55;27.72
10462;BME280;5278;42.656;23.374;2023-12-28T11:26:35;95471.16;;;24.30;27.66
10462;BME280;5278;42.656;23.374;2023-12-28T11:29:02;95491.63;;;24.06;27.86
10462;BME280;5278;42.656;23.374;2023-12-28T11:31:33;95442.66;;;23.45;28.85
10462;BME280;5278;42.656;23.374;2023-12-28T11:34:01;95461.88;;;23.76;28.75
10462;BME280;5278;42.656;23.374;2023-12-28T11:36:33;95448.81;;;23.74;28.53
10462;BME280;5278;42.656;23.374;2023-12-28T11:39:04;95454.50;;;23.94;28.69
10462;BME280;5278;42.656;23.374;2023-12-28T11:41:32;95453.56;;;24.00;28.24
10462;BME280;5278;42.656;23.374;2023-12-28T11:44:02;95360.31;;;23.29;28.41
10462;BME280;5278;42.656;23.374;2023-12-28T11:46:30;95443.31;;;23.64;28.43
10462;BME280;5278;42.656;23.374;2023-12-28T11:49:05;95442.28;;;23.53;29.28
10462;BME280;5278;42.656;23.374;2023-12-28T11:51:33;95441.72;;;23.40;29.23
10462;BME280;5278;42.656;23.374;2023-12-28T11:54:03;95449.56;;;23.35;29.51
10462;BME280;5278;42.656;23.374;2023-12-28T11:56:32;95441.34;;;23.36;29.61
10462;BME280;5278;42.656;23.374;2023-12-28T11:58:59;95428.78;;;23.32;29.61
10462;BME280;5278;42.656;23.374;2023-12-28T12:01:26;95412.72;;;22.75;29.57
10462;BME280;5278;42.656;23.374;2023-12-28T12:03:54;95438.91;;;22.42;30.16
10462;BME280;5278;42.656;23.374;2023-12-28T12:06:22;95428.59;;;22.10;30.98
10462;BME280;5278;42.656;23.374;2023-12-28T12:08:51;95423.94;;;21.76;31.25
10462;BME280;5278;42.656;23.374;2023-12-28T12:11:18;95430.59;;;21.30;32.08
10462;BME280;5278;42.656;23.374;2023-12-28T12:13:45;95430.91;;;20.97;32.66
10462;BME280;5278;42.656;23.374;2023-12-28T12:16:13;95423.84;;;20.73;32.77
10462;BME280;5278;42.656;23.374;2023-12-28T12:18:41;95423.69;;;20.43;32.93
10462;BME280;5278;42.656;23.374;2023-12-28T12:21:08;95424.25;;;20.20;33.44
10462;BME280;5278;42.656;23.374;2023-12-28T12:23:37;95419.84;;;20.08;33.84
10462;BME280;5278;42.656;23.374;2023-12-28T12:26:05;95411.53;;;20.11;34.10
10462;BME280;5278;42.656;23.374;2023-12-28T12:28:32;95415.44;;;20.02;34.38
10462;BME280;5278;42.656;23.374;2023-12-28T12:30:59;95411.00;;;19.96;34.55
10462;BME280;5278;42.656;23.374;2023-12-28T12:33:28;95421.63;;;19.83;34.92
10462;BME280;5278;42.656;23.374;2023-12-28T12:35:56;95424.19;;;19.58;35.45
10462;BME280;5278;42.656;23.374;2023-12-28T12:38:23;95421.41;;;19.46;35.75
10462;BME280;5278;42.656;23.374;2023-12-28T12:40:52;95430.81;;;19.16;36.37
10462;BME280;5278;42.656;23.374;2023-12-28T12:50:40;95420.59;;;18.55;37.83
10462;BME280;5278;42.656;23.374;2023-12-28T12:53:08;95413.06;;;18.45;37.97
10462;BME280;5278;42.656;23.374;2023-12-28T12:55:36;95421.78;;;18.26;38.43
10462;BME280;5278;42.656;23.374;2023-12-28T12:58:06;95421.56;;;18.01;38.90
10462;BME280;5278;42.656;23.374;2023-12-28T13:00:33;95416.25;;;17.88;38.96
10462;BME280;5278;42.656;23.374;2023-12-28T13:03:00;95422.53;;;17.81;39.00
10462;BME280;5278;42.656;23.374;2023-12-28T13:05:28;95422.47;;;17.61;39.28
10462;BME280;5278;42.656;23.374;2023-12-28T13:07:55;95415.34;;;17.48;40.13
10462;BME280;5278;42.656;23.374;2023-12-28T13:10:22;95419.50;;;17.30;40.32
10462;BME280;5278;42.656;23.374;2023-12-28T13:12:49;95404.50;;;17.17;40.23
10462;BME280;5278;42.656;23.374;2023-12-28T13:15:18;95405.69;;;17.08;39.96